This is the latest recevied weather packets stored in our database for station/object PU5FJO-13. If no packets are shown the sender has not sent any weather packets the latest 10 day(s).
| Time | Temp. | Humidity | Pressure | Rain* | Wind** | Luminosity | Snow |
|---|---|---|---|---|---|---|---|
| 1777841172 | 19.44° C | 57% | 1022.9 hPa | - | - | - | - |
| 1777840572 | 19.44° C | 56% | 1023 hPa | - | - | - | - |
| 1777839972 | 20.56° C | 52% | 1022.8 hPa | - | - | - | - |
| 1777839373 | 21.67° C | 49% | 1022.8 hPa | - | - | - | - |
| 1777838772 | 21.67° C | 49% | 1022.6 hPa | - | - | - | - |
| 1777838172 | 21.11° C | 49% | 1022.7 hPa | - | - | - | - |
| 1777837571 | 21.67° C | 47% | 1022.7 hPa | - | - | - | - |
| 1777836971 | 21.67° C | 46% | 1022.6 hPa | - | - | - | - |
| 1777836372 | 21.67° C | 46% | 1022.7 hPa | - | - | - | - |
| 1777835772 | 21.11° C | 46% | 1022.7 hPa | - | - | - | - |
| 1777835172 | 21.11° C | 45% | 1022.7 hPa | - | - | - | - |
| 1777834572 | 21.11° C | 45% | 1022.8 hPa | - | - | - | - |
| 1777833972 | 21.67° C | 47% | 1022.9 hPa | - | - | - | - |
| 1777833372 | 21.67° C | 45% | 1022.9 hPa | - | - | - | - |
| 1777832772 | 21.11° C | 46% | 1023 hPa | - | - | - | - |
| 1777832172 | 21.11° C | 45% | 1023 hPa | - | - | - | - |
| 1777831572 | 21.11° C | 45% | 1023 hPa | - | - | - | - |
| 1777830971 | 21.11° C | 44% | 1022.9 hPa | - | - | - | - |
| 1777830372 | 21.11° C | 45% | 1023 hPa | - | - | - | - |
| 1777829772 | 20.56° C | 45% | 1022.9 hPa | - | - | - | - |
| 1777829172 | 21.11° C | 45% | 1023 hPa | - | - | - | - |
| 1777828571 | 20.56° C | 43% | 1023 hPa | - | - | - | - |
| 1777827972 | 21.11° C | 44% | 1023.2 hPa | - | - | - | - |
| 1777827372 | 20.56° C | 44% | 1023.2 hPa | - | - | - | - |
| 1777826772 | 20.56° C | 43% | 1023.3 hPa | - | - | - | - |
* Rain since midnight (hover to see other rain measurements)
** Current wind speed in m/s (hover to see current wind gust speed)